createdAt,value
2023-03-25T00:00:06.877Z,9.05
2023-03-25T00:02:34.386Z,9.15
2023-03-25T00:05:03.466Z,11.05
2023-03-25T00:07:31.275Z,10.70
2023-03-25T00:09:58.622Z,11.77
2023-03-25T00:12:26.453Z,9.27
2023-03-25T00:14:58.002Z,10.25
2023-03-25T00:17:31.058Z,11.05
2023-03-25T00:20:00.146Z,11.45
2023-03-25T00:22:27.338Z,11.93
2023-03-25T00:24:55.011Z,14.13
2023-03-25T00:27:22.355Z,11.80
2023-03-25T00:29:50.160Z,12.38
2023-03-25T00:32:17.342Z,15.27
2023-03-25T00:34:47.063Z,15.77
2023-03-25T00:37:21.377Z,14.27
2023-03-25T00:39:48.721Z,14.85
2023-03-25T00:42:17.421Z,16.88
2023-03-25T00:44:44.678Z,15.57
2023-03-25T00:47:18.003Z,18.00
2023-03-25T00:49:46.106Z,16.33
2023-03-25T00:52:14.022Z,17.02
2023-03-25T00:54:41.705Z,18.02
2023-03-25T00:57:09.070Z,20.08
2023-03-25T00:59:36.801Z,17.90
2023-03-25T01:02:06.586Z,18.55
2023-03-25T01:04:34.740Z,19.00
2023-03-25T01:07:03.594Z,19.48
2023-03-25T01:09:30.882Z,19.83
2023-03-25T01:11:58.886Z,17.17
2023-03-25T01:14:28.969Z,18.92
2023-03-25T01:16:58.061Z,20.30
2023-03-25T01:19:25.194Z,24.58
2023-03-25T01:21:54.058Z,24.88
2023-03-25T01:24:21.435Z,25.00
2023-03-25T01:26:48.509Z,28.00
2023-03-25T01:29:21.284Z,38.22
2023-03-25T01:31:48.923Z,30.08
2023-03-25T01:34:16.613Z,26.98
2023-03-25T01:36:46.357Z,35.85
2023-03-25T01:39:18.527Z,30.15
2023-03-25T01:41:50.621Z,30.02
2023-03-25T01:44:24.233Z,30.77
2023-03-25T01:46:56.310Z,33.17
2023-03-25T01:49:29.698Z,43.35
2023-03-25T01:54:26.954Z,48.80
2023-03-25T01:56:53.957Z,47.47
2023-03-25T01:59:24.696Z,40.60
2023-03-25T02:01:53.152Z,36.83
2023-03-25T02:04:39.337Z,35.55
2023-03-25T02:07:10.200Z,39.95
2023-03-25T02:09:37.763Z,34.83
2023-03-25T02:12:07.705Z,35.15
2023-03-25T02:14:35.790Z,45.58
2023-03-25T02:17:14.803Z,49.15
2023-03-25T02:19:54.539Z,34.88
2023-03-25T02:22:55.962Z,39.28
2023-03-25T02:26:03.391Z,25.02
2023-03-25T02:28:36.752Z,24.35
2023-03-25T02:31:18.079Z,19.70
2023-03-25T02:34:08.300Z,17.80
2023-03-25T02:37:01.570Z,15.80
2023-03-25T02:39:55.778Z,33.40
2023-03-25T02:42:32.239Z,31.92
2023-03-25T02:45:12.406Z,22.67
2023-03-25T02:47:44.227Z,19.27
2023-03-25T02:50:17.588Z,22.20
2023-03-25T02:52:51.027Z,24.67
2023-03-25T02:55:21.226Z,18.45
2023-03-25T02:57:49.880Z,12.18
2023-03-25T03:00:18.991Z,11.60
2023-03-25T03:02:59.661Z,7.50
2023-03-25T03:05:29.070Z,6.75
2023-03-25T03:08:31.369Z,5.30
2023-03-25T03:11:22.948Z,7.68
2023-03-25T03:14:16.070Z,5.43
2023-03-25T03:16:49.650Z,4.43
2023-03-25T03:19:45.742Z,3.90
2023-03-25T03:22:25.814Z,3.88
2023-03-25T03:25:02.836Z,2.45
2023-03-25T03:27:52.614Z,3.20
2023-03-25T03:30:29.784Z,2.83
2023-03-25T03:33:09.604Z,2.85
2023-03-25T03:35:39.872Z,1.85
2023-03-25T03:38:11.431Z,4.30
2023-03-25T03:40:40.048Z,4.25
2023-03-25T03:43:20.976Z,4.30
2023-03-25T03:45:51.476Z,4.18
2023-03-25T03:48:33.860Z,2.10
2023-03-25T03:51:12.238Z,2.38
2023-03-25T03:53:44.780Z,2.97
2023-03-25T03:56:14.138Z,2.88
2023-03-25T03:58:42.625Z,3.20
2023-03-25T04:01:27.555Z,3.15
2023-03-25T04:04:02.755Z,4.90
2023-03-25T04:06:46.671Z,2.08
2023-03-25T04:09:33.973Z,3.28
2023-03-25T04:12:05.496Z,2.72
2023-03-25T04:14:32.901Z,5.22
2023-03-25T04:17:00.121Z,4.93
2023-03-25T04:19:27.202Z,3.65
2023-03-25T04:21:54.259Z,2.22
2023-03-25T04:24:21.576Z,1.90
2023-03-25T04:26:49.418Z,3.35
2023-03-25T04:29:16.584Z,2.10
2023-03-25T04:31:46.206Z,2.42
2023-03-25T04:34:14.531Z,2.30
2023-03-25T04:36:43.185Z,1.10
2023-03-25T04:39:13.427Z,2.10
2023-03-25T04:41:40.674Z,2.08
2023-03-25T04:44:08.192Z,2.67
2023-03-25T04:46:36.487Z,2.20
2023-03-25T04:49:13.681Z,1.88
2023-03-25T04:51:49.122Z,3.83
2023-03-25T04:54:18.198Z,2.35
2023-03-25T04:56:47.585Z,3.38
2023-03-25T04:59:15.985Z,3.10
2023-03-25T05:01:46.055Z,2.00
2023-03-25T05:04:17.022Z,2.40
2023-03-25T05:06:46.964Z,2.10
2023-03-25T05:09:16.171Z,2.60
2023-03-25T05:11:43.506Z,2.90
2023-03-25T05:14:11.654Z,3.47
2023-03-25T05:16:39.081Z,2.42
2023-03-25T05:19:06.748Z,1.98
2023-03-25T05:21:37.266Z,1.98
2023-03-25T05:24:08.019Z,2.13
2023-03-25T05:26:35.733Z,2.13
2023-03-25T05:29:13.649Z,2.60
2023-03-25T05:31:41.781Z,1.77
2023-03-25T05:34:09.139Z,2.33
2023-03-25T05:36:36.610Z,3.33
2023-03-25T05:39:05.175Z,2.47
2023-03-25T05:41:32.555Z,2.10
2023-03-25T05:44:00.850Z,1.65
2023-03-25T05:46:29.353Z,1.83
2023-03-25T05:49:03.119Z,1.77
2023-03-25T05:51:41.722Z,2.17
2023-03-25T05:54:10.516Z,2.10
2023-03-25T05:56:38.079Z,2.15
2023-03-25T05:59:05.206Z,3.28
2023-03-25T06:01:34.167Z,4.90
2023-03-25T06:04:02.225Z,6.38
2023-03-25T06:06:31.585Z,11.52
2023-03-25T06:08:58.855Z,3.70
2023-03-25T06:11:26.230Z,3.00
2023-03-25T06:13:53.268Z,3.45
2023-03-25T06:16:22.604Z,6.65
2023-03-25T06:18:50.860Z,3.58
2023-03-25T06:21:19.401Z,2.13
2023-03-25T06:23:49.702Z,2.05
2023-03-25T06:26:17.388Z,1.70
2023-03-25T06:28:44.914Z,2.58
2023-03-25T06:31:13.773Z,1.25
2023-03-25T06:33:43.520Z,1.77
2023-03-25T06:36:12.263Z,1.40
2023-03-25T06:38:39.794Z,1.70
2023-03-25T06:41:13.948Z,2.97
2023-03-25T06:43:42.620Z,2.50
2023-03-25T06:46:48.677Z,2.50
2023-03-25T06:49:18.849Z,2.47
2023-03-25T06:51:46.446Z,1.33
2023-03-25T06:54:14.664Z,2.05
2023-03-25T06:56:42.031Z,2.15
2023-03-25T06:59:10.098Z,1.35
2023-03-25T07:01:37.430Z,2.35
2023-03-25T07:04:04.995Z,2.20
2023-03-25T07:06:32.457Z,1.73
2023-03-25T07:08:59.980Z,2.15
2023-03-25T07:11:28.471Z,2.55
2023-03-25T07:13:56.066Z,1.40
2023-03-25T07:16:28.221Z,1.20
2023-03-25T07:18:56.482Z,1.38
2023-03-25T07:21:23.647Z,1.40
2023-03-25T07:23:50.755Z,1.77
2023-03-25T07:26:18.032Z,3.30
2023-03-25T07:28:47.654Z,2.30
2023-03-25T07:31:15.913Z,5.32
2023-03-25T07:33:43.143Z,3.70
2023-03-25T07:36:11.781Z,2.72
2023-03-25T07:38:39.181Z,2.13
2023-03-25T07:41:07.614Z,3.60
2023-03-25T07:43:35.336Z,3.05
2023-03-25T07:46:21.887Z,1.40
2023-03-25T07:48:49.290Z,2.20
2023-03-25T07:51:16.347Z,2.15
2023-03-25T07:53:45.272Z,1.65
2023-03-25T07:56:12.756Z,1.30
2023-03-25T07:58:40.271Z,3.70
2023-03-25T08:01:07.839Z,1.60
2023-03-25T08:03:35.270Z,2.55
2023-03-25T08:06:02.425Z,1.70
2023-03-25T08:08:29.880Z,2.78
2023-03-25T08:10:57.100Z,1.50
2023-03-25T08:13:24.535Z,1.75
2023-03-25T08:15:52.145Z,3.70
2023-03-25T08:18:19.688Z,2.45
2023-03-25T08:20:48.709Z,2.20
2023-03-25T08:23:19.835Z,2.88
2023-03-25T08:25:51.566Z,2.88
2023-03-25T08:28:22.828Z,3.45
2023-03-25T08:30:54.424Z,2.15
2023-03-25T08:33:22.875Z,3.72
2023-03-25T08:35:51.170Z,3.38
2023-03-25T08:38:19.125Z,2.38
2023-03-25T08:40:46.274Z,2.22
2023-03-25T08:43:13.910Z,3.60
2023-03-25T08:45:41.196Z,2.97
2023-03-25T08:48:08.670Z,2.30
2023-03-25T08:50:35.763Z,2.03
2023-03-25T08:53:03.961Z,1.95
2023-03-25T08:55:31.175Z,2.10
2023-03-25T08:58:02.082Z,2.83
2023-03-25T09:00:29.504Z,2.42
2023-03-25T09:02:59.024Z,2.90
2023-03-25T09:05:26.779Z,2.20
2023-03-25T09:07:54.453Z,3.03
2023-03-25T09:10:21.924Z,1.63
2023-03-25T09:12:48.962Z,2.38
2023-03-25T09:15:16.343Z,1.80
2023-03-25T09:17:43.830Z,1.85
2023-03-25T09:20:11.747Z,2.03
2023-03-25T09:22:39.154Z,2.17
2023-03-25T09:25:07.777Z,2.00
2023-03-25T09:27:35.167Z,1.88
2023-03-25T09:30:03.518Z,1.90
2023-03-25T09:32:30.788Z,1.85
2023-03-25T09:34:58.226Z,2.00
2023-03-25T09:37:25.648Z,2.10
2023-03-25T09:39:53.150Z,1.98
2023-03-25T09:42:50.098Z,2.30
2023-03-25T09:45:35.853Z,2.28
2023-03-25T09:48:05.981Z,2.83
2023-03-25T09:50:34.532Z,1.70
2023-03-25T09:53:19.330Z,1.90
2023-03-25T09:55:47.874Z,2.70
2023-03-25T09:58:27.294Z,1.40
2023-03-25T10:01:28.432Z,1.48
2023-03-25T10:04:11.184Z,1.40
2023-03-25T10:07:04.747Z,1.83
2023-03-25T10:10:01.397Z,1.83
2023-03-25T10:12:37.334Z,1.55
2023-03-25T10:15:26.628Z,1.73
2023-03-25T10:18:06.957Z,2.47
2023-03-25T10:20:46.909Z,1.67
2023-03-25T10:23:20.572Z,1.67
2023-03-25T10:25:50.181Z,2.30
2023-03-25T10:28:20.381Z,2.35
2023-03-25T10:30:50.560Z,3.13
2023-03-25T10:33:35.676Z,2.00
2023-03-25T10:36:04.123Z,2.30
2023-03-25T10:38:32.312Z,2.88
2023-03-25T10:41:18.600Z,2.90
2023-03-25T10:43:45.942Z,2.33
2023-03-25T10:46:22.171Z,3.20
2023-03-25T10:48:49.680Z,2.72
2023-03-25T10:51:21.746Z,3.97
2023-03-25T10:53:52.792Z,3.22
2023-03-25T10:56:23.066Z,3.28
2023-03-25T10:58:54.746Z,2.83
2023-03-25T11:01:32.610Z,2.75
2023-03-25T11:04:00.011Z,2.92
2023-03-25T11:06:31.530Z,4.22
2023-03-25T11:09:08.535Z,4.22
2023-03-25T11:11:35.693Z,4.95
2023-03-25T11:14:03.340Z,5.85
2023-03-25T11:16:34.701Z,5.18
2023-03-25T11:19:02.517Z,5.50
2023-03-25T11:21:33.260Z,3.90
2023-03-25T11:24:00.639Z,4.22
2023-03-25T11:26:33.484Z,5.30
2023-03-25T11:29:13.065Z,5.03
2023-03-25T11:31:41.144Z,4.68
2023-03-25T11:34:20.260Z,5.03
2023-03-25T11:36:55.482Z,6.43
2023-03-25T11:39:42.407Z,6.82
2023-03-25T11:42:19.759Z,6.78
2023-03-25T11:44:51.889Z,8.75
2023-03-25T11:47:38.879Z,8.35
2023-03-25T11:50:07.091Z,7.97
2023-03-25T11:52:43.066Z,7.30
2023-03-25T11:55:23.430Z,8.52
2023-03-25T11:57:50.968Z,8.95
2023-03-25T12:00:30.880Z,9.48
2023-03-25T12:03:22.629Z,9.52
2023-03-25T12:06:28.030Z,11.35
2023-03-25T12:09:00.201Z,11.45
2023-03-25T12:11:47.180Z,11.38
2023-03-25T12:14:28.913Z,11.95
2023-03-25T12:17:18.665Z,12.02
2023-03-25T12:20:11.528Z,12.00
2023-03-25T12:22:49.065Z,10.07
2023-03-25T12:25:28.688Z,8.40
2023-03-25T12:28:20.967Z,8.88
2023-03-25T12:31:01.332Z,7.82
2023-03-25T12:33:32.489Z,6.90
2023-03-25T12:36:20.149Z,7.68
2023-03-25T12:39:09.467Z,8.68
2023-03-25T12:42:14.643Z,13.88
2023-03-25T12:44:58.620Z,9.75
2023-03-25T12:47:36.664Z,9.27
2023-03-25T12:50:10.084Z,9.18
2023-03-25T12:55:13.103Z,8.63
2023-03-25T12:58:00.256Z,9.43
2023-03-25T13:00:36.631Z,9.30
2023-03-25T13:03:25.195Z,14.50
2023-03-25T13:05:54.980Z,13.23
2023-03-25T13:08:32.338Z,14.50
2023-03-25T13:11:08.178Z,17.30
2023-03-25T13:13:36.504Z,17.52
2023-03-25T13:16:13.293Z,14.73
2023-03-25T13:18:46.059Z,20.70
2023-03-25T13:21:18.636Z,23.73
2023-03-25T13:23:51.198Z,23.77
2023-03-25T13:26:26.552Z,33.47
2023-03-25T13:29:16.753Z,43.08
2023-03-25T13:31:46.397Z,49.92
2023-03-25T13:34:22.534Z,63.22
2023-03-25T13:37:09.932Z,53.45
2023-03-25T13:39:48.926Z,60.53
2023-03-25T13:42:20.906Z,57.53
2023-03-25T13:44:48.184Z,43.72
2023-03-25T13:47:25.246Z,50.10
2023-03-25T13:50:27.038Z,35.70
2023-03-25T13:53:02.391Z,69.97
2023-03-25T13:55:37.375Z,44.15
2023-03-25T13:58:10.799Z,45.53
2023-03-25T14:00:59.777Z,32.53
2023-03-25T14:03:43.068Z,29.52
2023-03-25T14:06:30.620Z,31.45
2023-03-25T14:09:26.250Z,30.20
2023-03-25T14:12:09.055Z,37.25
2023-03-25T14:15:07.094Z,33.78
2023-03-25T14:17:35.761Z,30.08
2023-03-25T14:20:05.714Z,27.10
2023-03-25T14:22:33.551Z,26.75
2023-03-25T14:25:00.801Z,22.92
2023-03-25T14:27:30.087Z,24.65
2023-03-25T14:30:01.490Z,27.42
2023-03-25T14:32:33.493Z,23.58
2023-03-25T14:35:35.015Z,22.02
2023-03-25T14:38:08.458Z,19.52
2023-03-25T14:41:02.271Z,18.73
2023-03-25T14:43:48.273Z,17.40
2023-03-25T14:46:20.595Z,14.57
2023-03-25T14:48:47.762Z,12.50
2023-03-25T14:51:14.957Z,10.10
2023-03-25T14:53:41.998Z,7.63
2023-03-25T14:56:15.481Z,8.80
2023-03-25T14:58:42.695Z,16.75
2023-03-25T15:01:11.126Z,33.35
2023-03-25T15:03:42.477Z,34.78
2023-03-25T15:06:12.825Z,27.75
2023-03-25T15:08:40.952Z,21.90
2023-03-25T15:11:12.063Z,18.10
2023-03-25T15:13:40.122Z,18.58
2023-03-25T15:16:17.768Z,31.00
2023-03-25T15:18:46.778Z,45.22
2023-03-25T15:21:14.246Z,33.50
2023-03-25T15:24:08.372Z,21.95
2023-03-25T15:26:43.167Z,27.88
2023-03-25T15:29:36.201Z,25.83
2023-03-25T15:32:22.040Z,18.35
2023-03-25T15:35:18.616Z,17.05
2023-03-25T15:38:01.534Z,14.52
2023-03-25T15:40:51.005Z,15.45
2023-03-25T15:43:59.426Z,20.70
2023-03-25T15:46:36.614Z,21.63
2023-03-25T15:49:31.814Z,20.98
2023-03-25T15:52:29.411Z,21.25
2023-03-25T15:55:11.984Z,27.60
2023-03-25T15:57:56.116Z,29.52
2023-03-25T16:00:38.835Z,27.83
2023-03-25T16:03:14.311Z,24.42
2023-03-25T16:05:53.863Z,22.83
2023-03-25T16:08:40.962Z,19.40
2023-03-25T16:11:27.527Z,22.20
2023-03-25T16:14:10.775Z,18.92
2023-03-25T16:16:40.678Z,21.02
2023-03-25T16:19:17.674Z,27.42
2023-03-25T16:21:48.438Z,19.40
2023-03-25T16:24:15.786Z,15.07
2023-03-25T16:26:47.853Z,12.75
2023-03-25T16:29:25.798Z,12.13
2023-03-25T16:31:59.709Z,12.27
2023-03-25T16:34:28.649Z,11.40
2023-03-25T16:36:56.635Z,12.20
2023-03-25T16:39:27.761Z,11.95
2023-03-25T16:42:10.537Z,11.10
2023-03-25T16:44:38.168Z,12.63
2023-03-25T16:47:05.264Z,10.88
2023-03-25T16:49:34.462Z,9.15
2023-03-25T16:52:03.573Z,10.95
2023-03-25T16:55:04.480Z,16.00
2023-03-25T16:57:37.808Z,13.93
2023-03-25T17:02:45.956Z,22.38
2023-03-25T17:05:15.898Z,25.88
2023-03-25T17:07:43.789Z,29.45
2023-03-25T17:10:20.297Z,28.52
2023-03-25T17:12:54.654Z,29.27
2023-03-25T17:15:23.517Z,32.42
2023-03-25T17:17:53.363Z,32.08
2023-03-25T17:20:26.987Z,32.08
2023-03-25T17:23:07.887Z,27.67
2023-03-25T17:25:58.697Z,30.05
2023-03-25T17:28:33.286Z,33.00
2023-03-25T17:31:01.116Z,33.03
2023-03-25T17:33:38.611Z,43.40
2023-03-25T17:36:12.682Z,36.85
2023-03-25T17:38:44.948Z,27.60
2023-03-25T17:41:13.200Z,25.70
2023-03-25T17:43:51.090Z,27.48
2023-03-25T17:46:23.387Z,28.10
2023-03-25T17:48:53.009Z,32.97
2023-03-25T17:51:20.487Z,35.63
2023-03-25T17:53:48.347Z,37.65
2023-03-25T17:56:17.160Z,38.22
2023-03-25T17:58:44.663Z,46.10
2023-03-25T18:01:12.375Z,39.88
2023-03-25T18:03:40.012Z,38.45
2023-03-25T18:06:07.459Z,38.85
2023-03-25T18:08:35.336Z,43.83
2023-03-25T18:11:02.806Z,39.35
2023-03-25T18:13:30.379Z,50.58
2023-03-25T18:15:57.845Z,40.33
2023-03-25T18:18:25.793Z,45.15
2023-03-25T18:20:59.658Z,43.28
2023-03-25T18:23:28.014Z,35.53
2023-03-25T18:25:55.979Z,42.72
2023-03-25T18:28:24.521Z,40.80
2023-03-25T18:30:56.299Z,38.03
2023-03-25T18:33:23.500Z,35.63
2023-03-25T18:35:52.700Z,34.33
2023-03-25T18:38:21.729Z,29.08
2023-03-25T18:40:49.696Z,29.30
2023-03-25T18:43:16.893Z,33.67
2023-03-25T18:45:44.894Z,29.40
2023-03-25T18:48:20.970Z,30.58
2023-03-25T18:50:53.284Z,30.38
2023-03-25T18:53:22.098Z,29.38
2023-03-25T18:55:49.421Z,25.40
2023-03-25T18:58:22.245Z,29.20
2023-03-25T19:00:51.162Z,29.02
2023-03-25T19:03:19.478Z,29.58
2023-03-25T19:05:47.564Z,32.38
2023-03-25T19:08:18.990Z,31.15
2023-03-25T19:10:46.899Z,22.55
2023-03-25T19:13:14.847Z,24.38
2023-03-25T19:15:42.777Z,19.90
2023-03-25T19:18:21.237Z,18.58
2023-03-25T19:20:49.478Z,22.23
2023-03-25T19:23:17.181Z,19.98
2023-03-25T19:25:46.043Z,17.77
2023-03-25T19:28:14.098Z,20.83
2023-03-25T19:30:43.884Z,20.92
2023-03-25T19:33:11.793Z,20.50
2023-03-25T19:35:39.042Z,15.55
2023-03-25T19:38:06.795Z,24.95
2023-03-25T19:40:36.240Z,33.22
2023-03-25T19:43:05.959Z,37.33
2023-03-25T19:45:33.692Z,35.88
2023-03-25T19:48:00.874Z,35.70
2023-03-25T19:50:30.518Z,30.92
2023-03-25T19:52:59.181Z,30.98
2023-03-25T19:55:29.289Z,39.72
2023-03-25T19:57:56.741Z,35.00
2023-03-25T20:00:26.389Z,33.45
2023-03-25T20:03:01.434Z,36.38
2023-03-25T20:05:30.524Z,32.20
2023-03-25T20:07:57.980Z,36.67
2023-03-25T20:10:27.866Z,27.08
2023-03-25T20:12:55.046Z,26.80
2023-03-25T20:15:22.567Z,21.67
2023-03-25T20:17:50.976Z,18.30
2023-03-25T20:20:18.642Z,21.08
2023-03-25T20:22:48.178Z,18.17
2023-03-25T20:25:16.142Z,19.70
2023-03-25T20:27:43.497Z,17.67
2023-03-25T20:30:13.865Z,18.95
2023-03-25T20:32:42.716Z,14.70
2023-03-25T20:35:12.749Z,19.52
2023-03-25T20:37:42.361Z,20.02
2023-03-25T20:40:11.897Z,16.85
2023-03-25T20:42:41.358Z,17.50
2023-03-25T20:45:09.825Z,19.90
2023-03-25T20:47:37.377Z,19.73
2023-03-25T20:50:05.514Z,17.58
2023-03-25T20:52:34.140Z,20.77
2023-03-25T20:55:01.696Z,23.23
2023-03-25T20:57:29.317Z,27.20
2023-03-25T20:59:57.716Z,23.10
2023-03-25T21:02:25.182Z,18.85
2023-03-25T21:04:54.770Z,25.45
2023-03-25T21:07:23.813Z,25.02
2023-03-25T21:09:51.190Z,28.92
2023-03-25T21:12:18.671Z,19.60
2023-03-25T21:14:46.336Z,12.13
2023-03-25T21:17:13.336Z,26.27
2023-03-25T21:19:40.939Z,26.38
2023-03-25T21:22:07.937Z,14.63
2023-03-25T21:24:36.566Z,16.58
2023-03-25T21:27:03.570Z,15.68
2023-03-25T21:29:30.890Z,12.93
2023-03-25T21:31:58.030Z,19.20
2023-03-25T21:34:25.673Z,13.73
2023-03-25T21:36:52.733Z,15.70
2023-03-25T21:39:20.659Z,12.77
2023-03-25T21:41:48.029Z,12.85
2023-03-25T21:44:16.149Z,11.73
2023-03-25T21:46:43.305Z,11.00
2023-03-25T21:49:13.282Z,9.52
2023-03-25T21:51:42.165Z,11.88
2023-03-25T21:54:10.415Z,13.40
2023-03-25T21:56:39.653Z,15.18
2023-03-25T21:59:07.106Z,14.80
2023-03-25T22:01:35.844Z,14.70
2023-03-25T22:04:03.545Z,14.93
2023-03-25T22:06:31.635Z,14.60
2023-03-25T22:08:59.149Z,15.18
2023-03-25T22:11:29.562Z,15.38
2023-03-25T22:13:57.114Z,14.52
2023-03-25T22:16:24.832Z,12.05
2023-03-25T22:18:53.195Z,17.30
2023-03-25T22:21:26.174Z,12.27
2023-03-25T22:23:54.760Z,14.50
2023-03-25T22:26:23.191Z,12.07
2023-03-25T22:28:57.067Z,15.23
2023-03-25T22:31:26.058Z,13.35
2023-03-25T22:34:02.438Z,14.88
2023-03-25T22:36:31.100Z,13.70
2023-03-25T22:38:58.070Z,13.70
2023-03-25T22:41:26.041Z,14.73
2023-03-25T22:43:53.764Z,13.82
2023-03-25T22:46:21.060Z,12.65
2023-03-25T22:48:48.838Z,9.77
2023-03-25T22:51:17.536Z,10.45
2023-03-25T22:53:45.253Z,8.57
2023-03-25T22:56:12.473Z,7.57
2023-03-25T22:58:40.473Z,9.82
2023-03-25T23:01:18.004Z,9.23
2023-03-25T23:03:45.535Z,8.88
2023-03-25T23:06:14.003Z,9.85
2023-03-25T23:08:41.574Z,11.05
2023-03-25T23:11:21.913Z,11.20
2023-03-25T23:13:51.489Z,8.88
2023-03-25T23:16:21.570Z,9.93
2023-03-25T23:18:48.989Z,10.40
2023-03-25T23:21:24.349Z,12.85
2023-03-25T23:23:53.767Z,13.23
2023-03-25T23:26:29.151Z,13.90
2023-03-25T23:29:00.009Z,10.93
2023-03-25T23:31:30.006Z,13.45
2023-03-25T23:33:58.095Z,11.20
2023-03-25T23:36:25.656Z,10.50
2023-03-25T23:38:53.325Z,13.70
2023-03-25T23:41:23.964Z,13.90
2023-03-25T23:43:52.661Z,14.00
2023-03-25T23:46:21.357Z,12.88
2023-03-25T23:48:48.522Z,13.25
2023-03-25T23:51:17.667Z,11.98
2023-03-25T23:53:46.537Z,12.70
2023-03-25T23:56:18.583Z,12.20
2023-03-25T23:58:45.624Z,13.27
